Time;durP1;ratioP1;P1;durP2;ratioP2;P2;SDS_P1;SDS_P2;PMS_P1;PMS_P2;Temp;Humidity;BMP_temperature;BMP_pressure;BME280_temperature;BME280_humidity;BME280_pressure;Samples;Min_cycle;Max_cycle;Signal;HPM_P1;HPM_P2
2023/03/20 00:00:33;;;;;;;7.53;4.65;;;;;;;16.13;100.00;96473.63;5045110;28;20081;-49
2023/03/20 00:03:01;;;;;;;7.40;4.85;;;;;;;15.73;100.00;96470.28;5043584;28;20087;-46
2023/03/20 00:05:31;;;;;;;8.60;5.50;;;;;;;15.97;100.00;96469.28;5048310;28;20080;-47
2023/03/20 00:07:59;;;;;;;6.07;5.18;;;;;;;15.93;100.00;96473.28;5046596;28;20459;-49
2023/03/20 00:10:31;;;;;;;7.28;4.22;;;;;;;15.73;100.00;96475.63;5044948;28;20072;-48
2023/03/20 00:13:01;;;;;;;7.00;4.90;;;;;;;15.76;100.00;96474.41;5044919;28;20474;-49
2023/03/20 00:15:31;;;;;;;7.10;5.15;;;;;;;15.79;100.00;96474.88;5045932;28;20072;-50
2023/03/20 00:17:59;;;;;;;7.68;5.43;;;;;;;15.86;100.00;96478.50;5046361;28;20514;-52
2023/03/20 00:20:28;;;;;;;6.63;4.78;;;;;;;15.78;100.00;96475.91;5045538;28;20079;-48
2023/03/20 00:22:58;;;;;;;;;;;;;;;16.13;100.00;96465.66;5079411;28;20068;-50
2023/03/20 00:25:27;;;;;;;5.95;4.25;;;;;;;15.88;100.00;96473.84;5044389;28;19978;-48
2023/03/20 00:27:55;;;;;;;7.90;4.70;;;;;;;15.77;100.00;96476.09;5043769;28;20091;-54
2023/03/20 00:30:28;;;;;;;9.15;5.22;;;;;;;16.11;100.00;96467.69;5045800;28;20546;-51
2023/03/20 00:32:58;;;;;;;7.47;5.60;;;;;;;16.20;100.00;96469.25;5043778;28;20105;-52
2023/03/20 00:35:28;;;;;;;7.10;5.23;;;;;;;16.08;100.00;96471.53;5045923;28;20092;-52
2023/03/20 00:37:57;;;;;;;7.25;5.30;;;;;;;16.14;100.00;96470.00;5045691;28;20095;-54
2023/03/20 00:40:29;;;;;;;9.13;5.18;;;;;;;16.29;100.00;96472.69;5044849;28;20092;-53
2023/03/20 00:43:00;;;;;;;6.22;4.72;;;;;;;16.26;100.00;96465.88;5046136;28;20099;-48
2023/03/20 00:45:31;;;;;;;7.30;4.85;;;;;;;16.26;100.00;96468.53;5044959;28;20092;-52
2023/03/20 00:48:00;;;;;;;10.52;5.28;;;;;;;16.28;100.00;96471.03;5046438;28;20569;-48
2023/03/20 00:50:30;;;;;;;7.63;5.30;;;;;;;16.11;100.00;96468.50;5043956;28;20100;-50
2023/03/20 00:52:59;;;;;;;6.50;3.97;;;;;;;15.67;100.00;96471.00;5044697;28;20087;-49
2023/03/20 00:55:29;;;;;;;6.93;4.38;;;;;;;15.89;100.00;96477.31;5044544;28;20077;-51
2023/03/20 00:57:59;;;;;;;9.18;4.57;;;;;;;15.57;100.00;96478.34;5045748;28;20557;-47
2023/03/20 01:00:36;;;;;;;5.65;4.20;;;;;;;15.64;100.00;96473.97;5044067;28;20482;-53
2023/03/20 01:03:13;;;;;;;7.93;4.72;;;;;;;15.66;100.00;96475.50;5044941;28;20081;-47
2023/03/20 01:05:41;;;;;;;6.57;4.70;;;;;;;15.40;100.00;96488.22;5044977;28;20680;-51
2023/03/20 01:08:13;;;;;;;6.93;4.82;;;;;;;15.61;100.00;96474.31;5042117;28;20081;-58
2023/03/20 01:10:41;;;;;;;5.82;4.40;;;;;;;15.59;100.00;96477.16;5043404;28;20076;-46
2023/03/20 01:13:19;;;;;;;7.13;5.28;;;;;;;15.69;100.00;96484.09;5044229;28;20081;-51
2023/03/20 01:15:50;;;;;;;7.90;5.30;;;;;;;15.90;100.00;96481.66;5044681;28;20077;-45
2023/03/20 01:18:18;;;;;;;;;;;;;;;15.66;100.00;96479.97;5043292;28;20068;-52
2023/03/20 01:20:47;;;;;;;5.97;4.28;;;;;;;15.79;100.00;96477.53;5046318;28;19964;-46
2023/03/20 01:23:16;;;;;;;8.63;4.57;;;;;;;15.81;100.00;96475.53;5044599;28;20489;-49
2023/03/20 01:25:44;;;;;;;5.15;4.22;;;;;;;15.78;100.00;96475.91;5045207;28;20092;-50
2023/03/20 01:28:15;;;;;;;8.88;4.80;;;;;;;15.67;100.00;96481.63;5044059;28;20150;-51
2023/03/20 01:30:44;;;;;;;6.00;3.85;;;;;;;15.57;100.00;96470.34;5045954;28;20095;-51
2023/03/20 01:33:16;;;;;;;6.07;3.95;;;;;;;15.56;100.00;96474.84;5042077;28;20469;-50
2023/03/20 01:35:45;;;;;;;6.10;4.00;;;;;;;15.68;100.00;96475.28;5046765;28;20091;-48
2023/03/20 01:38:15;;;;;;;7.13;4.80;;;;;;;15.72;100.00;96476.59;5046030;28;20774;-52
2023/03/20 01:40:49;;;;;;;6.10;4.10;;;;;;;15.65;100.00;96478.28;5043276;28;20587;-55
2023/03/20 01:43:20;;;;;;;6.30;4.40;;;;;;;15.74;100.00;96477.25;5044837;28;20463;-51
2023/03/20 01:45:57;;;;;;;7.07;4.35;;;;;;;15.62;100.00;96478.63;5044429;28;20136;-53
2023/03/20 01:48:33;;;;;;;7.43;4.88;;;;;;;15.61;100.00;96477.78;5042770;28;20073;-52
2023/03/20 01:51:01;;;;;;;6.75;4.10;;;;;;;15.70;100.00;96477.78;5040318;28;20095;-45
2023/03/20 01:53:30;;;;;;;6.00;4.32;;;;;;;15.55;100.00;96481.16;5044494;28;20116;-47
2023/03/20 01:55:59;;;;;;;5.40;3.85;;;;;;;15.32;100.00;96480.31;5042382;28;20561;-49
2023/03/20 01:58:31;;;;;;;5.63;4.07;;;;;;;15.46;100.00;96484.88;5044602;28;20080;-51
2023/03/20 02:01:00;;;;;;;6.75;4.38;;;;;;;15.47;100.00;96480.38;5044031;28;20119;-51
2023/03/20 02:03:29;;;;;;;5.90;4.03;;;;;;;15.44;100.00;96481.56;5044029;28;20456;-51
2023/03/20 02:05:59;;;;;;;5.63;3.17;;;;;;;15.60;100.00;96473.50;5043188;28;20044;-51
2023/03/20 02:08:29;;;;;;;6.10;4.22;;;;;;;15.38;100.00;96475.13;5042636;28;20079;-45
2023/03/20 02:10:59;;;;;;;5.55;3.72;;;;;;;15.47;100.00;96475.06;5074273;28;20446;-56
2023/03/20 02:13:29;;;;;;;5.38;3.55;;;;;;;15.44;100.00;96469.09;5043159;28;20084;-50
2023/03/20 02:16:01;;;;;;;6.97;4.70;;;;;;;15.48;100.00;96472.22;5043817;28;20080;-51
2023/03/20 02:18:31;;;;;;;6.35;3.92;;;;;;;15.57;100.00;96478.34;5042297;28;20483;-55
2023/03/20 02:21:42;;;;;;;6.32;3.80;;;;;;;15.52;100.00;96475.34;5040152;28;20068;-45
2023/03/20 02:25:02;;;;;;;4.10;2.78;;;;;;;15.50;100.00;96474.72;5043148;28;20084;-48
2023/03/20 02:27:33;;;;;;;7.63;3.85;;;;;;;15.69;100.00;96476.97;5042415;28;20104;-47
2023/03/20 02:30:42;;;;;;;3.92;3.25;;;;;;;15.45;100.00;96472.59;5043558;28;20460;-47
2023/03/20 02:33:41;;;;;;;7.03;3.60;;;;;;;15.55;100.00;96478.50;4982350;28;20085;-50
2023/03/20 02:36:33;;;;;;;5.32;3.90;;;;;;;15.54;100.00;96463.56;5009952;28;20477;-48
2023/03/20 02:39:17;;;;;;;3.75;2.97;;;;;;;15.50;100.00;96469.41;5043091;28;20087;-51
2023/03/20 02:41:53;;;;;;;5.15;3.63;;;;;;;15.63;100.00;96473.16;5043406;28;20083;-52
2023/03/20 02:44:23;;;;;;;8.98;2.80;;;;;;;15.42;100.00;96475.59;5040725;28;20073;-51
2023/03/20 02:46:56;;;;;;;4.95;3.55;;;;;;;15.47;100.00;96467.91;5042010;28;20208;-52
2023/03/20 02:49:40;;;;;;;6.10;3.53;;;;;;;15.62;100.00;96467.97;5040809;28;20538;-49
2023/03/20 02:52:15;;;;;;;4.53;3.67;;;;;;;15.73;100.00;96466.81;5042851;28;20089;-57
2023/03/20 02:54:53;;;;;;;4.85;3.38;;;;;;;15.88;100.00;96481.00;5044320;28;20084;-48
2023/03/20 02:57:27;;;;;;;5.30;3.25;;;;;;;15.63;100.00;96474.97;5042411;28;20545;-49
2023/03/20 02:59:58;;;;;;;4.97;3.22;;;;;;;15.72;100.00;96483.75;5042368;28;20076;-48
2023/03/20 03:02:33;;;;;;;4.65;2.97;;;;;;;15.63;100.00;96481.13;5043100;28;20092;-47
2023/03/20 03:05:04;;;;;;;5.00;3.40;;;;;;;15.88;100.00;96483.66;5043544;28;20080;-49
2023/03/20 03:07:33;;;;;;;4.22;3.28;;;;;;;15.95;100.00;96484.59;5044185;28;20091;-46
2023/03/20 03:10:07;;;;;;;4.50;3.30;;;;;;;15.82;100.00;96490.47;5048172;28;20081;-51
2023/03/20 03:12:36;;;;;;;5.82;3.53;;;;;;;15.73;100.00;96482.75;5044202;28;20076;-48
2023/03/20 03:15:07;;;;;;;4.70;3.23;;;;;;;15.68;100.00;96480.63;5042308;28;20049;-54
2023/03/20 03:17:37;;;;;;;4.82;3.80;;;;;;;15.67;100.00;96481.63;5043541;28;20073;-51
2023/03/20 03:20:14;;;;;;;6.00;3.80;;;;;;;15.56;100.00;96482.81;5044385;28;20081;-45
2023/03/20 03:22:43;;;;;;;4.22;3.47;;;;;;;15.53;100.00;96485.00;5040388;28;20091;-49
2023/03/20 03:25:12;;;;;;;5.80;3.30;;;;;;;15.59;100.00;96485.13;5044685;28;20084;-46
2023/03/20 03:27:42;;;;;;;4.60;3.23;;;;;;;15.79;100.00;96480.19;5045702;28;20107;-57
2023/03/20 03:30:13;;;;;;;4.53;3.55;;;;;;;15.68;100.00;96482.44;5044132;28;20582;-50
2023/03/20 03:32:45;;;;;;;3.90;2.92;;;;;;;15.61;100.00;96477.78;5041414;28;20135;-47
2023/03/20 03:35:16;;;;;;;4.28;3.38;;;;;;;15.47;100.00;96491.84;5039450;28;20088;-46
2023/03/20 03:37:50;;;;;;;4.85;3.63;;;;;;;15.40;100.00;96499.66;5044096;28;20087;-53
2023/03/20 03:40:24;;;;;;;5.20;3.30;;;;;;;15.55;100.00;96498.94;5044974;28;20105;-52
2023/03/20 03:42:57;;;;;;;5.03;3.47;;;;;;;15.43;100.00;96501.16;5041731;28;20087;-47
2023/03/20 03:45:30;;;;;;;5.15;3.65;;;;;;;15.50;100.00;96503.97;5038727;28;20084;-48
2023/03/20 03:48:02;;;;;;;6.25;3.45;;;;;;;15.61;100.00;96506.22;5042873;28;20072;-51
2023/03/20 03:50:33;;;;;;;5.53;3.38;;;;;;;15.39;100.00;96507.84;5042647;28;20081;-51
2023/03/20 03:53:04;;;;;;;4.68;3.17;;;;;;;15.64;100.00;96508.53;5047253;28;20103;-52
2023/03/20 03:55:37;;;;;;;4.15;3.10;;;;;;;15.65;100.00;96504.84;5051627;28;20068;-45
2023/03/20 03:58:09;;;;;;;5.70;3.45;;;;;;;15.72;100.00;96513.00;5045440;28;20084;-54
2023/03/20 04:00:41;;;;;;;4.93;3.50;;;;;;;15.81;100.00;96518.09;5044120;28;20087;-52
2023/03/20 04:03:10;;;;;;;4.75;3.70;;;;;;;15.74;100.00;96514.47;5047354;28;20080;-55
2023/03/20 04:05:41;;;;;;;5.30;3.67;;;;;;;15.89;100.00;96520.69;5045878;28;20449;-56
2023/03/20 04:08:09;;;;;;;5.32;3.38;;;;;;;15.87;100.00;96517.41;5043499;28;20077;-51
2023/03/20 04:10:39;;;;;;;4.28;3.28;;;;;;;15.94;100.00;96520.19;5046913;28;20076;-54
2023/03/20 04:13:07;;;;;;;5.10;3.65;;;;;;;15.91;100.00;96523.19;5046309;28;20099;-47
2023/03/20 04:15:36;;;;;;;3.80;3.05;;;;;;;16.06;100.00;96523.25;5044733;28;20498;-55
2023/03/20 04:18:04;;;;;;;6.10;3.58;;;;;;;15.73;100.00;96525.31;5042532;28;20613;-51
2023/03/20 04:20:33;;;;;;;5.60;3.25;;;;;;;15.70;100.00;96533.63;5042867;28;20076;-51
2023/03/20 04:23:03;;;;;;;4.57;2.88;;;;;;;15.89;100.00;96538.47;5046241;28;20076;-49
2023/03/20 04:25:32;;;;;;;5.68;3.20;;;;;;;15.96;100.00;96533.28;5044422;28;20628;-47
2023/03/20 04:28:02;;;;;;;4.25;3.05;;;;;;;15.87;100.00;96532.53;5046786;28;20080;-55
2023/03/20 04:30:30;;;;;;;5.97;3.25;;;;;;;15.71;100.00;96535.28;5045513;28;20088;-51
2023/03/20 04:32:59;;;;;;;4.50;3.42;;;;;;;15.88;100.00;96532.34;5042253;28;20087;-53
2023/03/20 04:35:27;;;;;;;3.78;2.92;;;;;;;15.74;100.00;96541.06;5047016;28;20561;-48
2023/03/20 04:37:56;;;;;;;3.80;3.08;;;;;;;15.75;100.00;96541.88;5046004;28;20076;-49
2023/03/20 04:40:24;;;;;;;4.28;2.97;;;;;;;15.89;100.00;96538.47;5043367;28;20550;-49
2023/03/20 04:42:52;;;;;;;4.13;3.00;;;;;;;16.05;100.00;96538.38;5046315;28;20076;-48
2023/03/20 04:45:22;;;;;;;4.72;3.25;;;;;;;16.01;100.00;96539.75;5044221;28;20080;-50
2023/03/20 04:47:50;;;;;;;4.40;3.17;;;;;;;16.12;100.00;96546.47;5044340;28;20079;-53
2023/03/20 04:50:19;;;;;;;3.95;2.90;;;;;;;16.21;100.00;96548.09;5044774;28;20073;-49
2023/03/20 04:52:47;;;;;;;4.22;3.00;;;;;;;16.07;100.00;96546.16;5044073;28;20084;-45
2023/03/20 04:55:16;;;;;;;3.15;2.33;;;;;;;15.93;100.00;96544.28;5043553;28;20077;-52
2023/03/20 04:57:44;;;;;;;4.40;2.70;;;;;;;16.00;100.00;96555.84;5044577;28;20072;-53
2023/03/20 05:00:13;;;;;;;4.95;2.65;;;;;;;16.01;100.00;96554.88;5045810;28;20100;-53
2023/03/20 05:02:43;;;;;;;5.03;2.17;;;;;;;15.93;100.00;96554.91;5043707;28;20266;-48
2023/03/20 05:05:11;;;;;;;3.30;2.53;;;;;;;15.89;100.00;96557.09;5044382;28;20076;-53
2023/03/20 05:07:40;;;;;;;3.65;2.33;;;;;;;15.90;100.00;96564.09;5041880;28;20111;-50
2023/03/20 05:10:09;;;;;;;6.70;2.97;;;;;;;15.64;100.00;96561.69;5041824;28;20081;-53
2023/03/20 05:12:38;;;;;;;4.55;2.53;;;;;;;15.78;100.00;96555.66;5040198;28;20076;-51
2023/03/20 05:15:07;;;;;;;3.03;2.45;;;;;;;15.47;100.00;96558.28;5039936;28;22078;-56
2023/03/20 05:17:35;;;;;;;4.88;2.42;;;;;;;15.52;100.00;96563.91;5042368;28;20080;-52
2023/03/20 05:20:07;;;;;;;3.92;2.70;;;;;;;15.70;100.00;96563.69;5041808;28;20083;-51
2023/03/20 05:22:35;;;;;;;3.55;2.83;;;;;;;15.86;100.00;96560.97;5043911;28;20080;-51
2023/03/20 05:25:04;;;;;;;4.13;2.70;;;;;;;15.76;100.00;96555.03;5041886;28;20084;-50
2023/03/20 05:27:33;;;;;;;5.07;2.70;;;;;;;15.77;100.00;96564.66;5045750;28;20118;-54
2023/03/20 05:30:01;;;;;;;3.80;2.60;;;;;;;15.71;100.00;96569.84;5047815;28;20496;-54
2023/03/20 05:32:29;;;;;;;5.43;2.70;;;;;;;15.59;100.00;96574.69;5047491;28;20088;-48
2023/03/20 05:34:58;;;;;;;3.83;2.30;;;;;;;15.60;100.00;96571.84;5043067;28;20081;-51
2023/03/20 05:37:27;;;;;;;4.82;2.30;;;;;;;15.59;100.00;96578.19;5051541;28;20151;-47
2023/03/20 05:39:56;;;;;;;4.18;2.67;;;;;;;15.40;100.00;96571.41;5045900;28;20087;-51
2023/03/20 05:42:24;;;;;;;5.68;2.78;;;;;;;15.58;100.00;96579.16;5049503;28;20077;-49
2023/03/20 05:44:52;;;;;;;3.60;2.30;;;;;;;15.25;100.00;96586.44;5043840;28;20087;-53
2023/03/20 05:47:21;;;;;;;4.75;2.90;;;;;;;15.41;100.00;96583.69;5047342;28;20087;-52
2023/03/20 05:49:53;;;;;;;4.30;3.00;;;;;;;15.51;100.00;96582.69;5047811;28;20079;-50
2023/03/20 05:52:21;;;;;;;3.28;2.20;;;;;;;15.20;100.00;96588.75;5047749;28;20076;-48
2023/03/20 05:54:51;;;;;;;7.22;2.10;;;;;;;15.33;100.00;96593.53;5044250;28;20080;-44
2023/03/20 05:57:19;;;;;;;3.53;2.53;;;;;;;15.26;100.00;96590.75;5048090;28;20493;-54
2023/03/20 05:59:47;;;;;;;3.47;2.17;;;;;;;15.29;100.00;96592.25;5046541;28;20091;-49
2023/03/20 06:02:16;;;;;;;3.78;2.10;;;;;;;15.13;100.00;96595.75;5040306;28;20081;-51
2023/03/20 06:04:44;;;;;;;4.45;2.60;;;;;;;15.12;100.00;96597.59;5047251;28;20091;-47
2023/03/20 06:07:13;;;;;;;4.05;2.42;;;;;;;15.36;100.00;96599.34;5045910;28;20084;-49
2023/03/20 06:09:41;;;;;;;3.05;1.83;;;;;;;15.20;100.00;96600.22;5044051;28;20084;-53
2023/03/20 06:12:11;;;;;;;5.32;2.22;;;;;;;15.22;100.00;96602.72;5043753;28;20076;-50
2023/03/20 06:14:39;;;;;;;6.38;2.75;;;;;;;15.09;100.00;96605.06;5047883;28;20108;-51
2023/03/20 06:17:07;;;;;;;3.88;2.30;;;;;;;15.05;100.00;96611.72;5047843;28;20564;-52
2023/03/20 06:19:37;;;;;;;5.85;2.28;;;;;;;15.23;100.00;96608.84;5046972;28;20088;-48
2023/03/20 06:22:05;;;;;;;4.72;2.45;;;;;;;15.31;100.00;96612.34;5047991;28;20462;-45
2023/03/20 06:24:34;;;;;;;3.22;2.22;;;;;;;15.29;100.00;96610.84;5046143;28;20092;-50
2023/03/20 06:27:02;;;;;;;3.40;2.30;;;;;;;15.59;100.00;96614.56;5044284;28;20485;-49
2023/03/20 06:29:32;;;;;;;3.60;2.45;;;;;;;15.67;100.00;96611.91;5047715;28;20104;-48
2023/03/20 06:32:00;;;;;;;3.10;2.40;;;;;;;15.37;100.00;96619.59;5044701;28;20073;-52
2023/03/20 06:34:29;;;;;;;5.40;3.20;;;;;;;15.66;100.00;96624.38;5043155;28;20095;-52
2023/03/20 06:36:57;;;;;;;5.30;3.00;;;;;;;15.69;100.00;96630.31;5046905;28;20447;-47
2023/03/20 06:39:27;;;;;;;4.20;2.97;;;;;;;15.43;100.00;96629.56;5047038;28;20084;-47
2023/03/20 06:41:55;;;;;;;5.43;2.88;;;;;;;15.59;100.00;96638.50;5046813;28;20751;-49
2023/03/20 06:44:25;;;;;;;5.70;3.15;;;;;;;16.21;100.00;96633.25;5051488;28;20087;-48
2023/03/20 06:46:55;;;;;;;5.38;3.38;;;;;;;16.25;100.00;96621.22;5051095;28;20084;-48
2023/03/20 06:49:24;;;;;;;6.60;3.97;;;;;;;16.15;100.00;96631.28;5051103;28;20087;-50
2023/03/20 06:51:52;;;;;;;5.10;3.65;;;;;;;16.48;100.00;96626.56;5045404;28;20081;-48
2023/03/20 06:54:20;;;;;;;4.88;3.40;;;;;;;16.44;100.00;96621.75;5050738;28;20084;-45
2023/03/20 06:56:49;;;;;;;5.47;3.45;;;;;;;16.86;100.00;96623.94;5042792;28;20076;-50
2023/03/20 06:59:17;;;;;;;4.82;3.60;;;;;;;17.06;100.00;96632.28;5050728;28;20076;-49
2023/03/20 07:01:46;;;;;;;5.05;3.67;;;;;;;17.24;100.00;96622.13;5043852;28;20080;-49
2023/03/20 07:04:16;;;;;;;5.30;3.67;;;;;;;16.68;100.00;96624.25;5051436;28;20103;-47
2023/03/20 07:06:44;;;;;;;5.65;3.28;;;;;;;16.95;100.00;96630.06;5050271;28;20088;-51
2023/03/20 07:09:12;;;;;;;6.70;3.67;;;;;;;17.19;100.00;96635.16;5050280;28;20081;-48
2023/03/20 07:11:41;;;;;;;6.97;3.72;;;;;;;17.57;100.00;96637.75;5050323;28;20526;-51
2023/03/20 07:14:09;;;;;;;5.00;3.58;;;;;;;17.80;100.00;96635.03;5052472;28;20440;-48
2023/03/20 07:16:37;;;;;;;6.00;3.88;;;;;;;17.85;100.00;96643.28;5047676;28;20095;-48
2023/03/20 07:19:05;;;;;;;5.80;3.40;;;;;;;17.34;100.00;96635.16;5051249;28;20083;-49
2023/03/20 07:21:35;;;;;;;6.22;3.65;;;;;;;17.46;100.00;96644.38;5048741;28;20465;-46
2023/03/20 07:24:05;;;;;;;5.80;3.83;;;;;;;17.54;100.00;96643.44;5040249;28;20088;-51
2023/03/20 07:26:34;;;;;;;6.18;4.00;;;;;;;17.53;100.00;96650.63;5047681;28;20088;-51
2023/03/20 07:29:02;;;;;;;7.05;4.03;;;;;;;17.53;100.00;96645.28;5048744;28;20081;-52
2023/03/20 07:31:31;;;;;;;4.68;3.20;;;;;;;17.07;100.00;96653.44;5048783;28;20092;-47
2023/03/20 07:34:00;;;;;;;5.85;3.50;;;;;;;16.56;100.00;96665.63;5047809;28;20076;-45
2023/03/20 07:36:29;;;;;;;6.13;3.97;;;;;;;16.61;100.00;96671.22;5050030;28;20088;-48
2023/03/20 07:38:58;;;;;;;4.68;2.75;;;;;;;16.55;100.00;96677.25;5048404;28;20092;-46
2023/03/20 07:41:26;;;;;;;6.22;3.78;;;;;;;16.29;100.00;96672.28;5054273;28;20079;-46
2023/03/20 07:43:55;;;;;;;6.68;4.45;;;;;;;16.21;100.00;96673.16;5050128;28;20514;-46
2023/03/20 07:46:24;;;;;;;6.65;3.90;;;;;;;16.63;100.00;96677.22;5050129;28;20085;-47
2023/03/20 07:48:52;;;;;;;6.18;4.03;;;;;;;16.68;100.00;96676.69;5050686;28;20084;-50
2023/03/20 07:51:21;;;;;;;5.15;3.75;;;;;;;16.63;100.00;96673.72;5054449;28;20088;-50
2023/03/20 07:53:49;;;;;;;8.05;4.78;;;;;;;16.78;100.00;96672.78;5046300;28;20095;-49
2023/03/20 07:56:18;;;;;;;5.88;3.67;;;;;;;16.27;100.00;96669.78;5050308;28;20087;-49
2023/03/20 07:58:47;;;;;;;6.38;4.63;;;;;;;16.30;100.00;96673.91;5050431;28;20091;-49
2023/03/20 08:01:15;;;;;;;7.35;3.95;;;;;;;16.07;100.00;96671.19;5049913;28;20095;-47
2023/03/20 08:03:43;;;;;;;6.82;5.10;;;;;;;16.55;100.00;96675.44;5049828;28;20100;-52
2023/03/20 08:06:11;;;;;;;8.25;4.00;;;;;;;16.32;100.00;96672.75;5050052;28;20529;-49
2023/03/20 08:08:40;;;;;;;7.75;4.93;;;;;;;16.97;100.00;96670.66;5047890;28;20150;-48
2023/03/20 08:11:08;;;;;;;7.50;4.90;;;;;;;16.69;100.00;96667.66;5049527;28;20092;-48
2023/03/20 08:13:38;;;;;;;6.15;4.15;;;;;;;16.59;100.00;96676.75;5049983;28;20505;-47
2023/03/20 08:16:07;;;;;;;3.97;2.97;;;;;;;15.95;100.00;96683.25;5044972;28;20088;-45
2023/03/20 08:18:35;;;;;;;5.60;3.25;;;;;;;16.20;100.00;96686.63;5049380;28;20707;-48
2023/03/20 08:21:04;;;;;;;7.53;4.28;;;;;;;16.91;100.00;96680.19;5046316;28;20084;-50
2023/03/20 08:23:33;;;;;;;7.22;4.05;;;;;;;16.84;100.00;96679.25;5049844;28;20096;-50
2023/03/20 08:26:01;;;;;;;6.47;4.50;;;;;;;17.65;100.00;96675.00;5049507;28;20081;-48
2023/03/20 08:28:29;;;;;;;7.43;4.57;;;;;;;17.44;100.00;96669.56;5048065;28;20080;-52
2023/03/20 08:31:16;;;;;;;7.03;4.53;;;;;;;17.90;100.00;96664.91;5048926;28;20539;-45
2023/03/20 08:33:45;;;;;;;6.43;4.32;;;;;;;18.03;100.00;96673.09;5049510;28;20151;-48
2023/03/20 08:36:15;;;;;;;5.93;4.47;;;;;;;18.19;98.89;96671.22;5049085;28;20486;-49
2023/03/20 08:38:43;;;;;;;5.90;4.07;;;;;;;18.02;100.00;96674.06;5049407;28;20088;-46
2023/03/20 08:41:11;;;;;;;9.15;5.05;;;;;;;18.02;100.00;96665.25;5049766;28;20085;-50
2023/03/20 08:43:40;;;;;;;10.52;4.90;;;;;;;18.30;100.00;96657.38;5048970;28;20080;-51
2023/03/20 08:46:09;;;;;;;7.28;4.25;;;;;;;17.81;100.00;96667.84;5049465;28;20823;-48
2023/03/20 08:48:38;;;;;;;6.13;4.60;;;;;;;18.78;93.88;96654.19;5046224;28;20471;-50
2023/03/20 08:51:07;;;;;;;5.73;3.60;;;;;;;18.35;100.00;96660.31;5046372;28;20080;-57
2023/03/20 08:53:36;;;;;;;5.45;3.50;;;;;;;18.06;100.00;96657.69;5048785;28;20103;-54
2023/03/20 08:56:06;;;;;;;6.38;4.00;;;;;;;18.42;100.00;96652.38;5040328;28;20471;-49
2023/03/20 08:58:34;;;;;;;5.88;4.43;;;;;;;18.47;100.00;96657.97;5050734;28;20092;-46
2023/03/20 09:01:04;;;;;;;4.85;2.75;;;;;;;17.70;100.00;96663.78;5048835;28;20084;-49
2023/03/20 09:03:32;;;;;;;;;;;;;;;18.10;100.00;96664.31;5049671;28;20080;-47
2023/03/20 09:06:05;;;;;;;6.50;4.38;;;;;;;18.49;100.00;96656.78;5047584;28;20059;-53
2023/03/20 09:08:34;;;;;;;5.40;3.75;;;;;;;18.79;100.00;96658.50;5049085;28;20088;-49
2023/03/20 09:11:02;;;;;;;6.32;3.95;;;;;;;19.73;79.06;96651.03;5046642;28;20081;-48
2023/03/20 09:13:30;;;;;;;5.75;3.58;;;;;;;19.49;77.06;96654.97;5048899;28;20084;-48
2023/03/20 09:15:59;;;;;;;5.75;4.40;;;;;;;19.97;76.10;96652.41;5047806;28;20116;-50
2023/03/20 09:18:27;;;;;;;5.47;4.13;;;;;;;19.70;74.04;96661.31;5044430;28;20089;-51
2023/03/20 09:20:56;;;;;;;5.68;3.92;;;;;;;19.79;68.38;96660.13;5047689;28;20087;-49
2023/03/20 09:23:26;;;;;;;5.70;4.30;;;;;;;20.20;63.89;96654.78;5043591;28;20073;-48
2023/03/20 09:25:54;;;;;;;5.00;3.60;;;;;;;20.03;65.76;96662.31;5048035;28;20095;-45
2023/03/20 09:28:22;;;;;;;6.07;4.47;;;;;;;20.84;63.16;96653.50;5041732;28;20088;-49
2023/03/20 09:30:55;;;;;;;5.10;3.25;;;;;;;19.70;66.31;96661.31;5046847;28;20088;-49
2023/03/20 09:33:23;;;;;;;6.47;3.60;;;;;;;19.63;67.45;96671.97;5046010;28;20080;-48
2023/03/20 09:35:52;;;;;;;6.22;2.97;;;;;;;19.62;74.47;96673.78;5047358;28;20075;-48
2023/03/20 09:38:20;;;;;;;5.40;3.63;;;;;;;19.23;79.37;96676.19;5045083;28;20079;-45
2023/03/20 09:40:52;;;;;;;6.03;3.30;;;;;;;19.54;76.48;96670.44;5044211;28;20088;-54
2023/03/20 09:43:35;;;;;;;5.40;3.63;;;;;;;19.76;72.07;96674.72;5048266;28;20101;-53
2023/03/20 09:46:14;;;;;;;4.70;3.17;;;;;;;19.29;70.84;96680.75;5037742;28;20077;-48
2023/03/20 09:48:47;;;;;;;5.47;3.58;;;;;;;20.13;67.84;96668.13;5048086;28;20107;-45
2023/03/20 09:51:24;;;;;;;5.15;3.67;;;;;;;20.49;65.50;96663.50;5058208;28;20065;-49
2023/03/20 09:53:55;;;;;;;4.95;3.10;;;;;;;20.80;58.52;96663.81;5045059;28;20081;-52
2023/03/20 09:56:30;;;;;;;3.40;2.45;;;;;;;19.64;72.85;96666.41;5044386;28;20072;-50
2023/03/20 09:58:59;;;;;;;4.45;3.25;;;;;;;20.15;64.64;96663.38;5046176;28;20084;-52
2023/03/20 10:01:32;;;;;;;4.50;3.10;;;;;;;20.27;64.85;96662.84;5045755;28;20072;-54
2023/03/20 10:04:02;;;;;;;4.28;2.83;;;;;;;20.28;67.17;96662.63;5047075;28;20451;-51
2023/03/20 10:06:31;;;;;;;5.13;3.30;;;;;;;21.06;58.78;96654.97;5048023;28;20071;-51
2023/03/20 10:08:59;;;;;;;4.05;2.75;;;;;;;20.84;56.58;96654.31;5045727;28;20084;-49
2023/03/20 10:11:50;;;;;;;4.20;3.05;;;;;;;20.95;56.15;96650.22;5041841;28;20089;-51
2023/03/20 10:14:24;;;;;;;3.63;2.95;;;;;;;21.50;53.06;96647.34;5040092;28;20092;-49
2023/03/20 10:17:04;;;;;;;4.05;2.95;;;;;;;21.92;51.07;96646.00;5047609;28;20088;-51
2023/03/20 10:19:36;;;;;;;3.35;2.70;;;;;;;22.14;49.83;96651.91;5048546;28;20080;-49
2023/03/20 10:22:12;;;;;;;4.40;3.10;;;;;;;22.32;49.17;96647.75;5047725;28;20084;-52
2023/03/20 10:24:44;;;;;;;3.92;2.75;;;;;;;22.00;50.44;96650.31;5052530;28;20068;-53
2023/03/20 10:27:20;;;;;;;5.68;3.13;;;;;;;21.82;52.13;96656.38;5045712;28;20073;-46
2023/03/20 10:29:54;;;;;;;3.30;2.80;;;;;;;21.09;51.87;96659.09;5050718;28;20060;-47
2023/03/20 10:32:26;;;;;;;3.15;2.40;;;;;;;21.06;50.71;96654.97;5047090;28;20061;-46
2023/03/20 10:35:02;;;;;;;3.58;2.50;;;;;;;20.67;55.01;96658.41;5049262;28;20080;-47
2023/03/20 10:37:40;;;;;;;3.20;2.40;;;;;;;21.32;50.97;96656.81;5050079;28;20075;-50
2023/03/20 10:40:21;;;;;;;3.10;2.20;;;;;;;21.13;50.94;96648.78;5047809;28;20092;-48
2023/03/20 10:42:52;;;;;;;3.10;2.70;;;;;;;21.48;50.89;96642.19;5054266;28;20057;-50
2023/03/20 10:45:30;;;;;;;4.88;2.90;;;;;;;22.14;47.77;96638.47;5051841;28;20087;-45
2023/03/20 10:48:00;;;;;;;3.72;2.35;;;;;;;21.35;50.32;96646.75;5051271;28;20084;-52
2023/03/20 10:50:29;;;;;;;;;;;;;;;20.80;52.39;96642.38;5051805;28;20092;-49
2023/03/20 10:52:57;;;;;;;3.58;2.38;;;;;;;20.75;53.31;96642.16;5049696;28;19971;-48
2023/03/20 10:55:28;;;;;;;3.08;2.40;;;;;;;20.76;52.54;96635.78;5051334;28;20529;-48
2023/03/20 10:58:03;;;;;;;4.78;2.80;;;;;;;20.85;53.33;96626.50;5049983;28;20499;-54
2023/03/20 11:00:32;;;;;;;4.63;2.92;;;;;;;21.40;51.32;96631.66;5051037;28;20115;-47
2023/03/20 11:03:01;;;;;;;3.58;2.60;;;;;;;21.46;52.92;96624.63;5050952;28;20084;-49
2023/03/20 11:05:31;;;;;;;4.57;2.88;;;;;;;21.84;49.82;96631.97;5050988;28;20080;-50
2023/03/20 11:08:02;;;;;;;4.05;3.10;;;;;;;21.56;50.13;96620.50;5050849;28;20471;-47
2023/03/20 11:10:32;;;;;;;3.85;2.40;;;;;;;21.81;48.23;96623.31;5050315;28;20535;-51
2023/03/20 11:13:15;;;;;;;3.05;2.13;;;;;;;20.91;48.26;96619.47;5050063;28;20088;-48
2023/03/20 11:15:43;;;;;;;3.72;2.38;;;;;;;21.05;49.19;96621.13;5050035;28;20512;-52
2023/03/20 11:18:13;;;;;;;2.60;1.98;;;;;;;20.57;49.71;96623.97;5050869;28;20064;-50
2023/03/20 11:20:46;;;;;;;2.40;1.75;;;;;;;20.24;53.75;96625.75;5045305;28;20142;-53
2023/03/20 11:23:17;;;;;;;3.38;2.17;;;;;;;20.93;51.49;96619.28;5048380;28;20081;-49
2023/03/20 11:25:50;;;;;;;5.43;2.53;;;;;;;21.60;49.16;96615.53;5046129;28;20084;-46
2023/03/20 11:28:26;;;;;;;3.28;2.30;;;;;;;21.47;48.52;96618.22;5047649;28;20499;-50
2023/03/20 11:31:00;;;;;;;3.53;1.80;;;;;;;21.54;47.32;96613.66;5050939;28;20084;-49
2023/03/20 11:33:36;;;;;;;2.85;1.90;;;;;;;22.10;46.10;96613.09;5049050;28;20076;-53
2023/03/20 11:36:12;;;;;;;3.42;2.10;;;;;;;22.01;46.14;96614.38;5045867;28;20091;-55
2023/03/20 11:38:44;;;;;;;3.22;2.00;;;;;;;21.25;51.61;96620.31;5050811;28;20087;-54
2023/03/20 11:41:19;;;;;;;2.70;1.80;;;;;;;21.29;49.06;96618.84;5049567;28;20083;-51
2023/03/20 11:43:49;;;;;;;2.75;2.08;;;;;;;21.52;47.39;96615.75;5050177;28;20092;-51